Main page
METAR-TAF:

METAR-TAF

Airports :

Humberside, England

Humberside Airport

latitude: 53-35N, longitude: 000-21W, elevation: 31 m

Current weather observation

The report was made 21 minutes ago, at 21:20 UTC
Wind 18 kt from the South/Southwest
Temperature 10°C
Humidity 82%
Pressure 1008 hPa
Visibility 10 km or more
Few clouds at a height of 2300 ft

METAR: EGNJ 232120Z 21018KT 9999 FEW023 10/07 Q1008

Time: 21:41 (21:41 UTC)

Forecast

The report was made 1 hour and 46 minutes ago, at 19:55 UTC
Forecast valid from 23 at 21 UTC to 24 at 06 UTC
Wind 15 kt from the South/Southwest
Visibility 10 km or more
Scattered clouds at a height of 2500 ft
Temporary
from 23 at 21 UTC to 24 at 06 UTC
Wind 25 kt from the South/Southwest with gusts up to 38 kt
Probability 40% :
Temporary
from 24 at 03 UTC to 24 at 06 UTC
Broken clouds at a height of 1200 ft

TAF: EGNJ 231955Z 2321/2406 21015KT 9999 SCT025 TEMPO 2321/2406 21025G38KT PROB40 TEMPO 2403/2406 BKN012

Weather observations and forecasts of more than 4000 airports (METAR and TAF reports).

The available stations are represented by yellow and red dots on the map.

Hover mouse over dot to see the name of the station.

Then click to see weather observations and forecasts.

To change the map : click on the green buttons with a black cross to zoom in, on the green button with a dash to zoom out, or on the green arrows for adjacent maps.


METAR-TAF: